createdAt,value
2023-06-01T00:00:29.189Z,16.02
2023-06-01T00:01:29.200Z,16.03
2023-06-01T00:02:29.318Z,15.96
2023-06-01T00:03:29.318Z,15.91
2023-06-01T00:04:29.327Z,15.96
2023-06-01T00:05:29.280Z,15.91
2023-06-01T00:06:29.292Z,15.85
2023-06-01T00:07:29.309Z,15.87
2023-06-01T00:08:29.334Z,15.85
2023-06-01T00:09:29.374Z,15.81
2023-06-01T00:10:29.378Z,15.81
2023-06-01T00:11:29.386Z,15.73
2023-06-01T00:12:29.402Z,15.65
2023-06-01T00:13:29.434Z,15.66
2023-06-01T00:14:29.442Z,15.66
2023-06-01T00:15:29.465Z,15.59
2023-06-01T00:16:29.554Z,15.62
2023-06-01T00:17:29.502Z,15.57
2023-06-01T00:18:29.524Z,15.60
2023-06-01T00:19:29.536Z,15.59
2023-06-01T00:20:29.555Z,15.54
2023-06-01T00:21:29.615Z,15.57
2023-06-01T00:22:29.609Z,15.48
2023-06-01T00:23:29.627Z,15.51
2023-06-01T00:24:29.627Z,15.47
2023-06-01T00:25:29.646Z,15.43
2023-06-01T00:26:29.665Z,15.43
2023-06-01T00:27:29.686Z,15.37
2023-06-01T00:28:29.704Z,15.41
2023-06-01T00:29:29.720Z,15.36
2023-06-01T00:30:29.738Z,15.33
2023-06-01T00:31:29.790Z,15.29
2023-06-01T00:32:29.781Z,15.36
2023-06-01T00:33:29.799Z,15.33
2023-06-01T00:34:29.821Z,15.30
2023-06-01T00:35:29.835Z,15.27
2023-06-01T00:36:29.849Z,15.22
2023-06-01T00:37:29.882Z,15.25
2023-06-01T00:38:29.889Z,15.22
2023-06-01T00:39:29.908Z,15.18
2023-06-01T00:40:29.924Z,15.10
2023-06-01T00:41:29.939Z,15.10
2023-06-01T00:42:29.969Z,15.11
2023-06-01T00:43:29.988Z,15.12
2023-06-01T00:44:29.993Z,15.11
2023-06-01T00:45:30.012Z,15.10
2023-06-01T00:46:30.053Z,15.04
2023-06-01T00:47:30.093Z,14.99
2023-06-01T00:48:30.065Z,15.00
2023-06-01T00:49:30.088Z,14.97
2023-06-01T00:50:30.102Z,14.92
2023-06-01T00:51:30.143Z,14.93
2023-06-01T00:52:30.141Z,14.94
2023-06-01T00:53:30.158Z,14.92
2023-06-01T00:54:30.175Z,14.89
2023-06-01T00:55:30.195Z,14.87
2023-06-01T00:56:30.208Z,14.81
2023-06-01T00:57:30.230Z,14.78
2023-06-01T00:58:30.248Z,14.68
2023-06-01T00:59:30.261Z,14.73
2023-06-01T01:00:30.292Z,14.68
2023-06-01T01:01:30.375Z,14.62
2023-06-01T01:02:30.348Z,14.66
2023-06-01T01:03:30.336Z,14.63
2023-06-01T01:04:30.374Z,14.71
2023-06-01T01:05:30.379Z,14.66
2023-06-01T01:06:30.391Z,14.61
2023-06-01T01:07:30.409Z,14.56
2023-06-01T01:08:30.427Z,14.53
2023-06-01T01:09:30.449Z,14.63
2023-06-01T01:10:30.472Z,14.49
2023-06-01T01:11:30.495Z,14.56
2023-06-01T01:12:30.505Z,14.49
2023-06-01T01:13:30.519Z,14.52
2023-06-01T01:14:30.535Z,14.41
2023-06-01T01:15:30.580Z,14.43
2023-06-01T01:16:30.602Z,14.45
2023-06-01T01:17:30.601Z,14.40
2023-06-01T01:18:30.635Z,14.31
2023-06-01T01:19:30.624Z,14.31
2023-06-01T01:20:30.644Z,14.30
2023-06-01T01:21:30.656Z,14.26
2023-06-01T01:22:30.677Z,14.26
2023-06-01T01:23:30.704Z,14.26
2023-06-01T01:24:30.712Z,14.25
2023-06-01T01:25:30.734Z,14.25
2023-06-01T01:26:30.750Z,14.20
2023-06-01T01:27:30.765Z,14.19
2023-06-01T01:28:30.782Z,14.15
2023-06-01T01:29:30.800Z,14.13
2023-06-01T01:30:30.822Z,14.12
2023-06-01T01:31:30.932Z,14.11
2023-06-01T01:32:30.882Z,14.05
2023-06-01T01:33:30.880Z,14.05
2023-06-01T01:34:30.891Z,13.98
2023-06-01T01:35:30.910Z,14.00
2023-06-01T01:36:30.921Z,13.97
2023-06-01T01:37:30.944Z,13.94
2023-06-01T01:38:30.967Z,13.94
2023-06-01T01:39:30.977Z,13.95
2023-06-01T01:40:30.997Z,13.95
2023-06-01T01:41:31.015Z,13.94
2023-06-01T01:42:31.032Z,13.87
2023-06-01T01:43:31.050Z,13.83
2023-06-01T01:44:31.066Z,13.91
2023-06-01T01:45:31.086Z,13.85
2023-06-01T01:46:31.140Z,13.91
2023-06-01T01:47:31.224Z,13.79
2023-06-01T01:48:31.135Z,13.83
2023-06-01T01:49:31.152Z,13.87
2023-06-01T01:50:31.178Z,13.83
2023-06-01T01:51:31.187Z,13.86
2023-06-01T01:52:31.214Z,13.83
2023-06-01T01:53:31.222Z,13.87
2023-06-01T01:54:31.241Z,13.87
2023-06-01T01:55:31.268Z,13.78
2023-06-01T01:56:31.274Z,13.78
2023-06-01T01:57:31.290Z,13.80
2023-06-01T01:58:31.310Z,13.85
2023-06-01T01:59:31.325Z,13.68
2023-06-01T02:00:31.347Z,13.64
2023-06-01T02:01:32.854Z,13.65
2023-06-01T02:02:31.462Z,13.67
2023-06-01T02:03:31.564Z,13.70
2023-06-01T02:04:31.415Z,13.67
2023-06-01T02:05:31.443Z,13.70
2023-06-01T02:06:31.458Z,13.64
2023-06-01T02:07:31.465Z,13.55
2023-06-01T02:08:31.484Z,13.57
2023-06-01T02:09:31.501Z,13.52
2023-06-01T02:10:31.517Z,13.57
2023-06-01T02:11:31.534Z,13.55
2023-06-01T02:12:31.557Z,13.50
2023-06-01T02:13:31.580Z,13.47
2023-06-01T02:14:31.585Z,13.52
2023-06-01T02:15:31.599Z,13.47
2023-06-01T02:16:31.646Z,13.45
2023-06-01T02:17:31.669Z,13.43
2023-06-01T02:18:31.652Z,13.37
2023-06-01T02:19:31.668Z,13.40
2023-06-01T02:20:31.683Z,13.39
2023-06-01T02:21:31.745Z,13.28
2023-06-01T02:22:31.722Z,13.31
2023-06-01T02:23:32.700Z,13.28
2023-06-01T02:24:31.755Z,13.24
2023-06-01T02:25:31.769Z,13.23
2023-06-01T02:26:31.793Z,13.23
2023-06-01T02:27:31.804Z,13.24
2023-06-01T02:28:31.819Z,13.30
2023-06-01T02:29:31.835Z,13.17
2023-06-01T02:30:31.868Z,13.23
2023-06-01T02:31:31.937Z,13.12
2023-06-01T02:32:31.955Z,13.19
2023-06-01T02:33:31.909Z,13.09
2023-06-01T02:34:31.921Z,13.19
2023-06-01T02:35:31.937Z,13.08
2023-06-01T02:36:31.955Z,13.12
2023-06-01T02:37:31.984Z,13.13
2023-06-01T02:38:31.994Z,13.08
2023-06-01T02:39:32.022Z,13.02
2023-06-01T02:40:32.023Z,12.99
2023-06-01T02:41:32.043Z,12.98
2023-06-01T02:42:32.069Z,12.94
2023-06-01T02:43:32.079Z,12.91
2023-06-01T02:44:32.091Z,12.95
2023-06-01T02:45:32.104Z,12.93
2023-06-01T02:46:32.190Z,12.90
2023-06-01T02:47:32.155Z,12.88
2023-06-01T02:48:32.167Z,12.83
2023-06-01T02:49:32.179Z,12.86
2023-06-01T02:50:32.192Z,12.76
2023-06-01T02:51:32.214Z,12.72
2023-06-01T02:52:32.222Z,12.84
2023-06-01T02:53:32.241Z,12.78
2023-06-01T02:54:32.256Z,12.70
2023-06-01T02:55:32.271Z,12.76
2023-06-01T02:56:32.288Z,12.87
2023-06-01T02:57:32.307Z,12.69
2023-06-01T02:58:32.321Z,12.75
2023-06-01T02:59:32.340Z,12.75
2023-06-01T03:00:32.350Z,12.76
2023-06-01T03:01:32.440Z,12.68
2023-06-01T03:02:32.414Z,12.66
2023-06-01T03:03:32.460Z,12.76
2023-06-01T03:04:32.426Z,12.68
2023-06-01T03:05:32.436Z,12.69
2023-06-01T03:06:32.463Z,12.70
2023-06-01T03:07:32.474Z,12.66
2023-06-01T03:08:32.490Z,12.70
2023-06-01T03:09:32.506Z,12.62
2023-06-01T03:10:32.521Z,12.61
2023-06-01T03:11:32.536Z,12.70
2023-06-01T03:12:32.550Z,12.66
2023-06-01T03:13:32.569Z,12.62
2023-06-01T03:14:32.583Z,12.54
2023-06-01T03:15:32.631Z,12.61
2023-06-01T03:16:32.615Z,12.55
2023-06-01T03:17:32.645Z,12.62
2023-06-01T03:18:32.692Z,12.61
2023-06-01T03:19:32.675Z,12.53
2023-06-01T03:20:32.699Z,12.53
2023-06-01T03:21:32.747Z,12.54
2023-06-01T03:22:32.712Z,12.53
2023-06-01T03:23:32.744Z,12.44
2023-06-01T03:24:32.749Z,12.40
2023-06-01T03:25:32.762Z,12.45
2023-06-01T03:26:32.779Z,12.40
2023-06-01T03:27:32.796Z,12.47
2023-06-01T03:28:32.842Z,12.44
2023-06-01T03:29:32.840Z,12.40
2023-06-01T03:30:32.846Z,12.39
2023-06-01T03:31:32.908Z,12.37
2023-06-01T03:32:32.897Z,12.35
2023-06-01T03:33:32.894Z,12.37
2023-06-01T03:34:32.912Z,12.36
2023-06-01T03:35:32.930Z,12.35
2023-06-01T03:36:32.941Z,12.30
2023-06-01T03:37:32.958Z,12.37
2023-06-01T03:38:32.973Z,12.32
2023-06-01T03:39:32.989Z,12.33
2023-06-01T03:40:33.004Z,12.29
2023-06-01T03:41:33.023Z,12.32
2023-06-01T03:42:33.040Z,12.30
2023-06-01T03:43:33.052Z,12.26
2023-06-01T03:44:33.075Z,12.29
2023-06-01T03:45:33.085Z,12.28
2023-06-01T03:46:33.124Z,12.23
2023-06-01T03:47:33.204Z,12.26
2023-06-01T03:48:33.135Z,12.18
2023-06-01T03:49:33.151Z,12.21
2023-06-01T03:50:33.169Z,12.25
2023-06-01T03:51:33.185Z,12.28
2023-06-01T03:52:33.202Z,12.25
2023-06-01T03:53:33.228Z,12.23
2023-06-01T03:54:33.230Z,12.10
2023-06-01T03:55:33.247Z,12.15
2023-06-01T03:56:33.275Z,12.10
2023-06-01T03:57:33.287Z,12.08
2023-06-01T03:58:33.304Z,12.08
2023-06-01T03:59:33.314Z,12.11
2023-06-01T04:00:33.328Z,12.17
2023-06-01T04:01:33.361Z,12.12
2023-06-01T04:02:33.487Z,12.07
2023-06-01T04:03:33.545Z,12.11
2023-06-01T04:04:33.395Z,12.10
2023-06-01T04:05:33.434Z,11.97
2023-06-01T04:06:33.427Z,12.02
2023-06-01T04:07:33.439Z,12.02
2023-06-01T04:08:33.456Z,11.99
2023-06-01T04:09:33.483Z,11.97
2023-06-01T04:10:33.489Z,12.00
2023-06-01T04:11:33.505Z,11.95
2023-06-01T04:12:33.522Z,11.96
2023-06-01T04:13:34.107Z,12.03
2023-06-01T04:14:33.559Z,11.89
2023-06-01T04:15:33.580Z,12.02
2023-06-01T04:16:33.621Z,11.88
2023-06-01T04:17:33.656Z,11.96
2023-06-01T04:18:33.622Z,11.96
2023-06-01T04:19:33.637Z,11.97
2023-06-01T04:20:33.647Z,12.03
2023-06-01T04:21:33.721Z,12.07
2023-06-01T04:22:33.685Z,12.08
2023-06-01T04:23:33.694Z,12.17
2023-06-01T04:24:33.712Z,12.14
2023-06-01T04:25:33.733Z,12.10
2023-06-01T04:26:33.768Z,12.14
2023-06-01T04:27:33.757Z,12.20
2023-06-01T04:28:33.803Z,12.26
2023-06-01T04:29:33.852Z,12.26
2023-06-01T04:30:33.810Z,12.26
2023-06-01T04:31:33.989Z,12.25
2023-06-01T04:32:33.873Z,12.23
2023-06-01T04:33:33.852Z,12.25
2023-06-01T04:34:33.875Z,12.25
2023-06-01T04:35:33.931Z,12.29
2023-06-01T04:36:33.921Z,12.20
2023-06-01T04:37:33.919Z,12.25
2023-06-01T04:38:33.934Z,12.32
2023-06-01T04:39:33.954Z,12.35
2023-06-01T04:40:33.976Z,12.29
2023-06-01T04:41:33.990Z,12.26
2023-06-01T04:42:34.017Z,12.33
2023-06-01T04:43:34.017Z,12.30
2023-06-01T04:44:35.488Z,12.36
2023-06-01T04:45:34.049Z,12.33
2023-06-01T04:46:34.099Z,12.35
2023-06-01T04:47:34.101Z,12.39
2023-06-01T04:48:34.102Z,12.40
2023-06-01T04:49:34.110Z,12.40
2023-06-01T04:50:34.130Z,12.33
2023-06-01T04:51:34.177Z,12.33
2023-06-01T04:52:34.160Z,12.32
2023-06-01T04:53:34.182Z,12.32
2023-06-01T04:54:34.193Z,12.39
2023-06-01T04:55:34.210Z,12.35
2023-06-01T04:56:34.226Z,12.36
2023-06-01T04:57:34.240Z,12.37
2023-06-01T04:58:34.267Z,12.37
2023-06-01T04:59:34.278Z,12.40
2023-06-01T05:00:34.292Z,12.35
2023-06-01T05:01:34.319Z,12.40
2023-06-01T05:02:34.362Z,12.48
2023-06-01T05:03:34.360Z,12.35
2023-06-01T05:04:34.360Z,12.43
2023-06-01T05:05:34.388Z,12.43
2023-06-01T05:06:34.390Z,12.45
2023-06-01T05:07:34.410Z,12.44
2023-06-01T05:08:34.429Z,12.44
2023-06-01T05:09:34.465Z,12.37
2023-06-01T05:10:34.460Z,12.53
2023-06-01T05:11:34.473Z,12.37
2023-06-01T05:12:34.508Z,12.37
2023-06-01T05:13:34.507Z,12.47
2023-06-01T05:14:34.537Z,12.40
2023-06-01T05:15:34.566Z,12.45
2023-06-01T05:16:34.625Z,12.55
2023-06-01T05:17:34.602Z,12.53
2023-06-01T05:18:34.591Z,12.53
2023-06-01T05:19:34.604Z,12.57
2023-06-01T05:20:34.626Z,12.62
2023-06-01T05:21:34.697Z,12.54
2023-06-01T05:22:34.657Z,12.57
2023-06-01T05:23:34.700Z,12.58
2023-06-01T05:24:34.689Z,12.53
2023-06-01T05:25:34.706Z,12.51
2023-06-01T05:26:34.728Z,12.51
2023-06-01T05:27:34.746Z,12.57
2023-06-01T05:28:35.602Z,12.53
2023-06-01T05:29:34.775Z,12.57
2023-06-01T05:30:34.801Z,12.63
2023-06-01T05:31:34.873Z,12.54
2023-06-01T05:32:34.869Z,12.69
2023-06-01T05:33:34.836Z,12.68
2023-06-01T05:34:34.853Z,12.66
2023-06-01T05:35:34.869Z,12.68
2023-06-01T05:36:34.888Z,12.69
2023-06-01T05:37:34.903Z,12.63
2023-06-01T05:38:34.922Z,12.69
2023-06-01T05:39:34.934Z,12.63
2023-06-01T05:40:34.951Z,12.68
2023-06-01T05:41:34.969Z,12.66
2023-06-01T05:42:34.983Z,12.81
2023-06-01T05:43:34.999Z,12.75
2023-06-01T05:44:35.035Z,12.75
2023-06-01T05:45:35.095Z,12.78
2023-06-01T05:46:35.050Z,12.87
2023-06-01T05:47:35.089Z,12.86
2023-06-01T05:48:35.091Z,12.86
2023-06-01T05:49:35.112Z,12.87
2023-06-01T05:50:35.126Z,12.91
2023-06-01T05:51:35.135Z,12.95
2023-06-01T05:52:35.153Z,12.94
2023-06-01T05:53:35.167Z,12.93
2023-06-01T05:54:35.185Z,12.90
2023-06-01T05:55:35.201Z,12.93
2023-06-01T05:56:35.236Z,12.98
2023-06-01T05:57:35.284Z,13.03
2023-06-01T05:58:35.258Z,13.09
2023-06-01T05:59:35.276Z,13.16
2023-06-01T06:00:35.297Z,13.21
2023-06-01T06:01:35.309Z,13.28
2023-06-01T06:02:35.381Z,13.23
2023-06-01T06:03:35.453Z,13.26
2023-06-01T06:04:35.403Z,13.31
2023-06-01T06:05:35.377Z,13.37
2023-06-01T06:06:35.630Z,13.50
2023-06-01T06:07:35.409Z,13.52
2023-06-01T06:08:35.434Z,13.57
2023-06-01T06:09:35.448Z,13.61
2023-06-01T06:10:35.468Z,13.73
2023-06-01T06:11:35.489Z,13.65
2023-06-01T06:12:35.508Z,13.68
2023-06-01T06:13:35.530Z,13.82
2023-06-01T06:14:35.549Z,13.83
2023-06-01T06:15:35.709Z,13.82
2023-06-01T06:16:35.651Z,13.91
2023-06-01T06:17:35.611Z,13.93
2023-06-01T06:18:35.606Z,13.80
2023-06-01T06:19:35.633Z,13.91
2023-06-01T06:20:35.643Z,13.89
2023-06-01T06:21:35.683Z,13.97
2023-06-01T06:22:35.702Z,14.00
2023-06-01T06:23:35.696Z,14.07
2023-06-01T06:24:35.740Z,14.05
2023-06-01T06:25:35.750Z,14.04
2023-06-01T06:26:35.760Z,14.07
2023-06-01T06:27:35.804Z,14.13
2023-06-01T06:28:35.786Z,14.15
2023-06-01T06:29:35.810Z,14.23
2023-06-01T06:30:35.841Z,14.22
2023-06-01T06:31:35.965Z,14.38
2023-06-01T06:32:35.968Z,14.41
2023-06-01T06:33:35.890Z,14.52
2023-06-01T06:34:35.896Z,14.48
2023-06-01T06:35:35.919Z,14.41
2023-06-01T06:36:35.933Z,14.52
2023-06-01T06:37:35.972Z,14.53
2023-06-01T06:38:35.974Z,14.51
2023-06-01T06:39:36.010Z,14.58
2023-06-01T06:40:36.012Z,14.61
2023-06-01T06:41:36.028Z,14.66
2023-06-01T06:42:36.045Z,14.77
2023-06-01T06:43:36.061Z,14.73
2023-06-01T06:44:36.102Z,14.87
2023-06-01T06:45:36.107Z,14.93
2023-06-01T06:46:36.148Z,14.94
2023-06-01T06:47:36.176Z,14.99
2023-06-01T06:48:36.166Z,15.07
2023-06-01T06:49:36.177Z,15.15
2023-06-01T06:50:36.206Z,15.17
2023-06-01T06:51:36.220Z,15.14
2023-06-01T06:52:36.237Z,15.33
2023-06-01T06:53:36.259Z,15.36
2023-06-01T06:54:36.275Z,15.36
2023-06-01T06:55:36.291Z,15.41
2023-06-01T06:56:36.327Z,15.50
2023-06-01T06:57:36.333Z,15.52
2023-06-01T06:58:36.351Z,15.55
2023-06-01T06:59:36.385Z,15.57
2023-06-01T07:00:36.412Z,15.57
2023-06-01T07:01:38.608Z,15.52
2023-06-01T07:02:36.469Z,15.55
2023-06-01T07:03:36.478Z,15.62
2023-06-01T07:04:36.471Z,15.69
2023-06-01T07:05:36.508Z,15.66
2023-06-01T07:06:36.517Z,15.69
2023-06-01T07:07:36.528Z,15.78
2023-06-01T07:08:36.550Z,15.92
2023-06-01T07:09:36.587Z,16.06
2023-06-01T07:10:36.595Z,16.22
2023-06-01T07:11:36.627Z,16.03
2023-06-01T07:12:36.646Z,16.02
2023-06-01T07:13:36.678Z,16.00
2023-06-01T07:14:36.676Z,16.21
2023-06-01T07:15:36.695Z,16.17
2023-06-01T07:16:36.748Z,16.29
2023-06-01T07:17:36.768Z,16.29
2023-06-01T07:18:36.756Z,16.43
2023-06-01T07:19:36.776Z,16.44
2023-06-01T07:20:36.798Z,16.57
2023-06-01T07:21:36.867Z,16.61
2023-06-01T07:22:36.841Z,16.64
2023-06-01T07:23:36.864Z,16.80
2023-06-01T07:24:36.883Z,16.72
2023-06-01T07:25:36.904Z,16.72
2023-06-01T07:26:36.928Z,16.72
2023-06-01T07:27:36.947Z,16.72
2023-06-01T07:28:36.966Z,16.74
2023-06-01T07:29:36.991Z,16.72
2023-06-01T07:30:37.007Z,16.83
2023-06-01T07:31:37.171Z,16.95
2023-06-01T07:32:37.266Z,17.01
2023-06-01T07:33:37.155Z,17.10
2023-06-01T07:34:37.128Z,17.12
2023-06-01T07:35:37.138Z,17.16
2023-06-01T07:36:37.136Z,17.22
2023-06-01T07:37:37.159Z,17.30
2023-06-01T07:38:38.233Z,17.28
2023-06-01T07:39:37.205Z,17.24
2023-06-01T07:40:37.227Z,17.13
2023-06-01T07:41:37.248Z,17.20
2023-06-01T07:42:37.266Z,17.17
2023-06-01T07:43:37.297Z,17.34
2023-06-01T07:44:37.310Z,17.37
2023-06-01T07:45:37.349Z,17.52
2023-06-01T07:46:37.465Z,17.53
2023-06-01T07:47:37.427Z,17.76
2023-06-01T07:48:37.417Z,17.95
2023-06-01T07:49:37.536Z,18.11
2023-06-01T07:50:37.454Z,18.26
2023-06-01T07:51:37.466Z,18.48
2023-06-01T07:52:37.496Z,18.57
2023-06-01T07:53:37.514Z,18.64
2023-06-01T07:54:37.544Z,18.63
2023-06-01T07:55:37.560Z,18.70
2023-06-01T07:56:37.583Z,18.78
2023-06-01T07:57:37.605Z,18.85
2023-06-01T07:58:37.650Z,18.81
2023-06-01T07:59:37.668Z,18.81
2023-06-01T08:00:37.681Z,18.78
2023-06-01T08:01:37.702Z,18.85
2023-06-01T08:02:37.777Z,18.97
2023-06-01T08:03:37.942Z,18.98
2023-06-01T08:04:37.775Z,18.97
2023-06-01T08:05:39.311Z,18.97
2023-06-01T08:06:37.821Z,19.08
2023-06-01T08:07:37.847Z,19.00
2023-06-01T08:08:37.889Z,18.88
2023-06-01T08:09:37.895Z,18.91
2023-06-01T08:10:37.920Z,19.05
2023-06-01T08:11:37.944Z,19.09
2023-06-01T08:12:37.968Z,19.23
2023-06-01T08:13:38.000Z,19.38
2023-06-01T08:14:38.026Z,19.45
2023-06-01T08:15:38.066Z,19.39
2023-06-01T08:16:38.095Z,19.47
2023-06-01T08:17:38.166Z,19.38
2023-06-01T08:18:38.130Z,19.39
2023-06-01T08:19:38.148Z,19.53
2023-06-01T08:20:38.174Z,19.72
2023-06-01T08:21:38.222Z,19.64
2023-06-01T08:22:38.232Z,19.85
2023-06-01T08:23:38.262Z,19.84
2023-06-01T08:24:38.275Z,20.00
2023-06-01T08:25:38.304Z,20.08
2023-06-01T08:26:38.346Z,20.18
2023-06-01T08:27:38.363Z,20.34
2023-06-01T08:28:38.381Z,20.44
2023-06-01T08:29:42.865Z,20.59
2023-06-01T08:30:38.440Z,20.64
2023-06-01T08:31:38.544Z,20.80
2023-06-01T08:32:38.565Z,20.70
2023-06-01T08:33:38.514Z,20.77
2023-06-01T08:34:38.583Z,20.71
2023-06-01T08:36:38.595Z,20.56
2023-06-01T08:37:38.619Z,20.66
2023-06-01T08:38:38.680Z,20.78
2023-06-01T08:39:38.677Z,20.75
2023-06-01T08:40:38.701Z,20.80
2023-06-01T08:41:38.746Z,20.82
2023-06-01T08:42:38.768Z,20.80
2023-06-01T08:43:38.785Z,20.80
2023-06-01T08:44:38.813Z,20.77
2023-06-01T08:45:38.838Z,20.80
2023-06-01T08:46:38.910Z,20.83
2023-06-01T08:47:38.908Z,20.92
2023-06-01T08:48:38.919Z,20.80
2023-06-01T08:49:38.945Z,20.78
2023-06-01T08:50:38.980Z,20.80
2023-06-01T08:51:39.022Z,20.88
2023-06-01T08:52:39.032Z,20.80
2023-06-01T08:53:39.055Z,20.93
2023-06-01T08:54:39.085Z,20.96
2023-06-01T08:55:39.109Z,20.96
2023-06-01T08:56:39.134Z,21.05
2023-06-01T08:57:39.162Z,21.13
2023-06-01T08:58:39.194Z,21.17
2023-06-01T08:59:39.219Z,21.15
2023-06-01T09:00:39.248Z,21.15
2023-06-01T09:01:39.424Z,21.19
2023-06-01T09:02:39.323Z,21.11
2023-06-01T09:03:39.368Z,21.26
2023-06-01T09:04:39.369Z,21.28
2023-06-01T09:05:39.390Z,21.23
2023-06-01T09:06:39.424Z,21.30
2023-06-01T09:07:39.441Z,21.32
2023-06-01T09:08:39.577Z,21.44
2023-06-01T09:09:39.638Z,21.59
2023-06-01T09:10:39.540Z,21.53
2023-06-01T09:11:39.560Z,21.56
2023-06-01T09:12:39.589Z,21.54
2023-06-01T09:13:39.627Z,21.58
2023-06-01T09:14:39.641Z,21.63
2023-06-01T09:15:39.681Z,21.62
2023-06-01T09:16:39.740Z,21.66
2023-06-01T09:17:39.785Z,21.75
2023-06-01T09:18:39.769Z,21.88
2023-06-01T09:19:39.800Z,21.88
2023-06-01T09:20:39.817Z,21.85
2023-06-01T09:21:39.915Z,22.03
2023-06-01T09:22:39.876Z,22.08
2023-06-01T09:23:39.910Z,22.08
2023-06-01T09:24:39.934Z,22.14
2023-06-01T09:25:39.962Z,22.07
2023-06-01T09:26:39.992Z,22.26
2023-06-01T09:27:40.022Z,22.31
2023-06-01T09:28:40.049Z,22.33
2023-06-01T09:29:40.097Z,22.38
2023-06-01T09:30:40.120Z,22.43
2023-06-01T09:31:40.214Z,22.73
2023-06-01T09:32:40.200Z,22.62
2023-06-01T09:33:40.204Z,22.73
2023-06-01T09:34:40.253Z,22.56
2023-06-01T09:35:40.271Z,22.76
2023-06-01T09:36:40.301Z,22.88
2023-06-01T09:37:40.319Z,22.88
2023-06-01T09:38:40.353Z,22.95
2023-06-01T09:39:40.381Z,22.92
2023-06-01T09:40:40.409Z,22.96
2023-06-01T09:41:40.441Z,22.95
2023-06-01T09:42:40.475Z,22.95
2023-06-01T09:43:40.510Z,22.95
2023-06-01T09:44:40.546Z,22.96
2023-06-01T09:45:40.559Z,22.99
2023-06-01T09:46:40.630Z,23.18
2023-06-01T09:47:40.664Z,23.42
2023-06-01T09:48:40.662Z,23.51
2023-06-01T09:49:40.676Z,23.62
2023-06-01T09:50:40.717Z,23.70
2023-06-01T09:51:40.737Z,23.74
2023-06-01T09:52:40.779Z,23.89
2023-06-01T09:53:40.798Z,23.96
2023-06-01T09:54:40.849Z,24.07
2023-06-01T09:55:40.860Z,24.22
2023-06-01T09:56:40.894Z,24.22
2023-06-01T09:57:40.925Z,24.22
2023-06-01T09:58:41.110Z,24.48
2023-06-01T09:59:40.984Z,24.56
2023-06-01T10:00:41.784Z,24.71
2023-06-01T10:01:41.065Z,24.86
2023-06-01T10:02:41.164Z,24.79
2023-06-01T10:03:41.190Z,24.78
2023-06-01T10:04:41.148Z,25.12
2023-06-01T10:05:41.168Z,25.18
2023-06-01T10:06:41.201Z,25.24
2023-06-01T10:07:41.233Z,25.24
2023-06-01T10:08:41.262Z,25.30
2023-06-01T10:09:41.337Z,25.22
2023-06-01T10:10:41.326Z,25.22
2023-06-01T10:11:41.358Z,25.26
2023-06-01T10:12:41.388Z,25.34
2023-06-01T10:13:41.423Z,25.41
2023-06-01T10:14:41.482Z,25.52
2023-06-01T10:15:41.524Z,25.62
2023-06-01T10:16:41.575Z,25.62
2023-06-01T10:17:41.575Z,25.62
2023-06-01T10:18:41.583Z,25.54
2023-06-01T10:19:41.609Z,25.71
2023-06-01T10:20:41.657Z,25.76
2023-06-01T10:21:41.700Z,25.83
2023-06-01T10:22:43.111Z,25.89
2023-06-01T10:23:41.736Z,25.86
2023-06-01T10:24:41.873Z,25.81
2023-06-01T10:25:41.799Z,26.04
2023-06-01T10:26:41.831Z,26.24
2023-06-01T10:27:44.039Z,26.33
2023-06-01T10:28:43.252Z,26.55
2023-06-01T10:29:41.930Z,26.68
2023-06-01T10:30:41.981Z,26.85
2023-06-01T10:31:42.242Z,26.96
2023-06-01T10:32:42.126Z,27.05
2023-06-01T10:33:42.061Z,27.33
2023-06-01T10:34:42.091Z,27.38
2023-06-01T10:35:42.128Z,27.47
2023-06-01T10:36:42.158Z,27.60
2023-06-01T10:37:42.185Z,27.64
2023-06-01T10:38:42.219Z,27.64
2023-06-01T10:39:42.272Z,27.66
2023-06-01T10:40:42.289Z,27.71
2023-06-01T10:41:42.318Z,27.66
2023-06-01T10:42:42.369Z,27.76
2023-06-01T10:43:42.418Z,27.83
2023-06-01T10:44:42.438Z,28.00
2023-06-01T10:45:42.671Z,28.20
2023-06-01T10:46:45.428Z,28.41
2023-06-01T10:47:42.538Z,28.53
2023-06-01T10:48:42.545Z,28.74
2023-06-01T10:49:42.579Z,28.68
2023-06-01T10:50:42.662Z,28.72
2023-06-01T10:51:42.685Z,28.86
2023-06-01T10:52:42.679Z,29.09
2023-06-01T10:53:42.726Z,29.06
2023-06-01T10:54:42.745Z,29.12
2023-06-01T10:55:42.777Z,29.16
2023-06-01T10:56:42.811Z,29.35
2023-06-01T10:57:42.843Z,29.67
2023-06-01T10:58:42.879Z,29.77
2023-06-01T10:59:42.925Z,29.80
2023-06-01T11:00:43.101Z,29.87
2023-06-01T11:01:43.056Z,29.98
2023-06-01T11:02:43.093Z,29.89
2023-06-01T11:03:43.106Z,29.87
2023-06-01T11:04:43.153Z,30.02
2023-06-01T11:05:43.124Z,29.95
2023-06-01T11:06:43.153Z,29.80
2023-06-01T11:07:43.184Z,29.53
2023-06-01T11:08:43.221Z,29.47
2023-06-01T11:09:43.258Z,29.59
2023-06-01T11:10:43.294Z,29.80
2023-06-01T11:11:43.321Z,29.74
2023-06-01T11:12:43.351Z,29.39
2023-06-01T11:13:43.386Z,29.39
2023-06-01T11:14:43.520Z,29.44
2023-06-01T11:15:44.612Z,29.46
2023-06-01T11:16:43.544Z,29.55
2023-06-01T11:17:43.563Z,29.57
2023-06-01T11:18:43.557Z,29.62
2023-06-01T11:19:43.586Z,29.69
2023-06-01T11:20:43.620Z,29.74
2023-06-01T11:21:43.675Z,29.76
2023-06-01T11:22:43.691Z,29.83
2023-06-01T11:23:43.724Z,29.76
2023-06-01T11:24:43.759Z,29.71
2023-06-01T11:25:43.787Z,29.74
2023-06-01T11:26:43.823Z,29.79
2023-06-01T11:27:43.854Z,29.80
2023-06-01T11:28:43.890Z,29.73
2023-06-01T11:29:43.922Z,29.84
2023-06-01T11:30:43.957Z,30.01
2023-06-01T11:31:44.022Z,30.11
2023-06-01T11:32:44.055Z,30.21
2023-06-01T11:33:44.054Z,30.43
2023-06-01T11:34:44.088Z,30.43
2023-06-01T11:35:44.133Z,30.52
2023-06-01T11:36:44.156Z,30.58
2023-06-01T11:37:44.194Z,30.69
2023-06-01T11:38:44.238Z,30.77
2023-06-01T11:39:44.266Z,30.89
2023-06-01T11:40:44.297Z,31.14
2023-06-01T11:41:44.328Z,31.13
2023-06-01T11:42:44.357Z,31.37
2023-06-01T11:43:44.393Z,31.35
2023-06-01T11:44:44.426Z,31.36
2023-06-01T11:45:44.799Z,31.51
2023-06-01T11:46:44.535Z,31.73
2023-06-01T11:47:44.547Z,31.81
2023-06-01T11:48:44.582Z,31.95
2023-06-01T11:49:44.596Z,31.92
2023-06-01T11:50:44.631Z,31.82
2023-06-01T11:51:44.668Z,31.70
2023-06-01T11:52:44.707Z,31.60
2023-06-01T11:53:44.736Z,31.50
2023-06-01T11:54:44.772Z,31.48
2023-06-01T11:55:44.806Z,31.55
2023-06-01T11:56:44.879Z,31.42
2023-06-01T11:57:44.876Z,31.63
2023-06-01T11:58:44.915Z,31.73
2023-06-01T11:59:44.950Z,31.64
2023-06-01T12:00:44.975Z,31.69
2023-06-01T12:01:45.083Z,31.72
2023-06-01T12:02:45.234Z,31.86
2023-06-01T12:03:45.119Z,31.82
2023-06-01T12:04:45.115Z,32.01
2023-06-01T12:05:45.157Z,32.24
2023-06-01T12:06:45.195Z,32.17
2023-06-01T12:07:45.216Z,32.19
2023-06-01T12:08:45.253Z,32.00
2023-06-01T12:09:45.290Z,31.86
2023-06-01T12:10:45.334Z,31.74
2023-06-01T12:11:45.411Z,31.81
2023-06-01T12:12:45.392Z,31.81
2023-06-01T12:13:45.427Z,31.55
2023-06-01T12:14:45.471Z,31.47
2023-06-01T12:15:45.504Z,31.47
2023-06-01T12:16:45.591Z,31.42
2023-06-01T12:17:45.790Z,31.28
2023-06-01T12:18:45.729Z,31.48
2023-06-01T12:19:45.643Z,31.39
2023-06-01T12:20:45.668Z,31.45
2023-06-01T12:21:45.743Z,31.60
2023-06-01T12:22:45.737Z,31.60
2023-06-01T12:23:45.775Z,31.48
2023-06-01T12:24:46.020Z,31.36
2023-06-01T12:25:45.842Z,31.22
2023-06-01T12:26:45.874Z,31.07
2023-06-01T12:27:45.911Z,31.08
2023-06-01T12:28:45.947Z,31.11
2023-06-01T12:29:45.984Z,31.26
2023-06-01T12:30:46.031Z,31.26
2023-06-01T12:31:46.044Z,31.11
2023-06-01T12:32:46.123Z,31.14
2023-06-01T12:33:46.114Z,30.89
2023-06-01T12:34:46.142Z,30.77
2023-06-01T12:35:46.179Z,30.86
2023-06-01T12:36:46.209Z,30.88
2023-06-01T12:37:46.241Z,30.93
2023-06-01T12:38:46.277Z,31.02
2023-06-01T12:39:46.313Z,31.07
2023-06-01T12:40:46.376Z,31.26
2023-06-01T12:41:46.379Z,31.37
2023-06-01T12:42:46.409Z,31.42
2023-06-01T12:43:46.442Z,31.42
2023-06-01T12:44:46.477Z,31.45
2023-06-01T12:45:46.517Z,31.55
2023-06-01T12:46:46.601Z,31.35
2023-06-01T12:47:46.594Z,31.35
2023-06-01T12:48:46.613Z,31.32
2023-06-01T12:49:46.644Z,31.26
2023-06-01T12:50:46.682Z,31.22
2023-06-01T12:51:46.742Z,31.15
2023-06-01T12:52:46.781Z,31.17
2023-06-01T12:53:46.821Z,31.30